sensor_id;sensor_type;location;lat;lon;timestamp;noise_LAeq;noise_LA_min;noise_LA_max;noise_LA01;noise_LA95
60031;Laerm;45901;47.600;9.890;2023-06-05T00:01:01;39.57;35.66;48.66;;
60031;Laerm;45901;47.600;9.890;2023-06-05T00:03:31;38.78;35.66;41.30;;
60031;Laerm;45901;47.600;9.890;2023-06-05T00:05:58;38.62;35.04;40.98;;
60031;Laerm;45901;47.600;9.890;2023-06-05T00:08:25;38.53;35.31;40.80;;
60031;Laerm;45901;47.600;9.890;2023-06-05T00:10:53;38.52;35.36;40.71;;
60031;Laerm;45901;47.600;9.890;2023-06-05T00:13:20;38.49;35.86;40.79;;
60031;Laerm;45901;47.600;9.890;2023-06-05T00:15:48;38.58;35.01;47.00;;
60031;Laerm;45901;47.600;9.890;2023-06-05T00:18:16;38.70;35.66;42.03;;
60031;Laerm;45901;47.600;9.890;2023-06-05T00:20:46;38.72;35.36;42.47;;
60031;Laerm;45901;47.600;9.890;2023-06-05T00:23:13;38.54;35.04;47.26;;
60031;Laerm;45901;47.600;9.890;2023-06-05T00:25:41;38.52;35.66;41.89;;
60031;Laerm;45901;47.600;9.890;2023-06-05T00:28:08;38.52;35.04;40.62;;
60031;Laerm;45901;47.600;9.890;2023-06-05T00:30:35;38.76;35.66;48.49;;
60031;Laerm;45901;47.600;9.890;2023-06-05T00:33:04;38.53;35.04;41.11;;
60031;Laerm;45901;47.600;9.890;2023-06-05T00:35:32;38.53;35.36;40.98;;
60031;Laerm;45901;47.600;9.890;2023-06-05T00:38:00;38.94;35.66;42.22;;
60031;Laerm;45901;47.600;9.890;2023-06-05T00:40:28;38.57;34.69;40.80;;
60031;Laerm;45901;47.600;9.890;2023-06-05T00:42:55;38.58;34.31;52.72;;
60031;Laerm;45901;47.600;9.890;2023-06-05T00:45:23;38.91;35.66;48.78;;
60031;Laerm;45901;47.600;9.890;2023-06-05T00:47:50;38.62;35.31;41.61;;
60031;Laerm;45901;47.600;9.890;2023-06-05T00:50:18;38.57;35.01;43.39;;
60031;Laerm;45901;47.600;9.890;2023-06-05T00:52:48;38.55;35.66;40.71;;
60031;Laerm;45901;47.600;9.890;2023-06-05T00:55:18;38.57;35.66;40.80;;
60031;Laerm;45901;47.600;9.890;2023-06-05T00:57:46;38.55;35.66;40.98;;
60031;Laerm;45901;47.600;9.890;2023-06-05T01:00:14;39.60;35.36;49.90;;
60031;Laerm;45901;47.600;9.890;2023-06-05T01:02:42;38.60;35.04;40.89;;
60031;Laerm;45901;47.600;9.890;2023-06-05T01:05:09;38.64;35.36;41.14;;
60031;Laerm;45901;47.600;9.890;2023-06-05T01:07:37;38.66;35.36;41.06;;
60031;Laerm;45901;47.600;9.890;2023-06-05T01:10:07;38.71;35.66;41.06;;
60031;Laerm;45901;47.600;9.890;2023-06-05T01:12:45;38.67;35.66;41.06;;
60031;Laerm;45901;47.600;9.890;2023-06-05T01:15:14;38.81;35.36;47.90;;
60031;Laerm;45901;47.600;9.890;2023-06-05T01:17:42;38.82;35.94;41.38;;
60031;Laerm;45901;47.600;9.890;2023-06-05T01:20:13;38.93;35.66;41.38;;
60031;Laerm;45901;47.600;9.890;2023-06-05T01:22:40;39.00;35.94;41.75;;
60031;Laerm;45901;47.600;9.890;2023-06-05T01:25:09;39.23;36.20;41.46;;
60031;Laerm;45901;47.600;9.890;2023-06-05T01:27:48;39.44;36.91;41.46;;
60031;Laerm;45901;47.600;9.890;2023-06-05T01:30:25;39.65;36.45;49.82;;
60031;Laerm;45901;47.600;9.890;2023-06-05T01:32:59;39.46;36.20;41.68;;
60031;Laerm;45901;47.600;9.890;2023-06-05T01:35:30;39.49;36.45;41.46;;
60031;Laerm;45901;47.600;9.890;2023-06-05T01:38:00;39.46;36.20;41.46;;
60031;Laerm;45901;47.600;9.890;2023-06-05T01:40:31;39.24;35.94;41.53;;
60031;Laerm;45901;47.600;9.890;2023-06-05T01:43:00;39.28;36.20;41.38;;
60031;Laerm;45901;47.600;9.890;2023-06-05T01:45:29;39.48;36.20;49.37;;
60031;Laerm;45901;47.600;9.890;2023-06-05T01:47:58;39.27;36.69;41.75;;
60031;Laerm;45901;47.600;9.890;2023-06-05T01:50:26;39.23;36.45;41.30;;
60031;Laerm;45901;47.600;9.890;2023-06-05T01:52:53;39.25;35.94;41.53;;
60031;Laerm;45901;47.600;9.890;2023-06-05T01:55:22;39.28;36.20;41.22;;
60031;Laerm;45901;47.600;9.890;2023-06-05T01:57:54;39.34;36.45;41.68;;
60031;Laerm;45901;47.600;9.890;2023-06-05T02:00:21;40.09;36.20;49.91;;
60031;Laerm;45901;47.600;9.890;2023-06-05T02:02:49;39.39;36.45;42.76;;
60031;Laerm;45901;47.600;9.890;2023-06-05T02:05:18;39.50;35.86;44.47;;
60031;Laerm;45901;47.600;9.890;2023-06-05T02:07:47;39.35;35.94;44.47;;
60031;Laerm;45901;47.600;9.890;2023-06-05T02:10:20;39.73;36.69;47.50;;
60031;Laerm;45901;47.600;9.890;2023-06-05T02:12:49;39.74;35.94;47.98;;
60031;Laerm;45901;47.600;9.890;2023-06-05T02:15:18;39.66;36.69;48.58;;
60031;Laerm;45901;47.600;9.890;2023-06-05T02:17:46;39.49;36.20;44.31;;
60031;Laerm;45901;47.600;9.890;2023-06-05T02:20:16;39.83;36.20;45.75;;
60031;Laerm;45901;47.600;9.890;2023-06-05T02:22:44;39.59;36.20;47.02;;
60031;Laerm;45901;47.600;9.890;2023-06-05T02:25:16;39.96;36.45;48.77;;
60031;Laerm;45901;47.600;9.890;2023-06-05T02:27:43;40.49;36.69;49.20;;
60031;Laerm;45901;47.600;9.890;2023-06-05T02:30:12;40.51;36.91;50.85;;
60031;Laerm;45901;47.600;9.890;2023-06-05T02:32:41;40.43;37.12;52.27;;
60031;Laerm;45901;47.600;9.890;2023-06-05T02:35:10;41.52;36.91;55.89;;
60031;Laerm;45901;47.600;9.890;2023-06-05T02:37:39;40.37;36.69;53.62;;
60031;Laerm;45901;47.600;9.890;2023-06-05T02:40:10;39.81;37.12;44.97;;
60031;Laerm;45901;47.600;9.890;2023-06-05T02:42:38;39.74;36.45;43.39;;
60031;Laerm;45901;47.600;9.890;2023-06-05T02:45:08;41.20;36.69;55.47;;
60031;Laerm;45901;47.600;9.890;2023-06-05T02:47:36;42.25;36.91;56.27;;
60031;Laerm;45901;47.600;9.890;2023-06-05T02:50:06;42.92;36.91;56.01;;
60031;Laerm;45901;47.600;9.890;2023-06-05T02:52:34;39.84;36.34;48.32;;
60031;Laerm;45901;47.600;9.890;2023-06-05T02:55:05;39.59;36.69;41.46;;
60031;Laerm;45901;47.600;9.890;2023-06-05T02:57:33;39.90;36.91;48.26;;
60031;Laerm;45901;47.600;9.890;2023-06-05T03:00:08;40.53;37.12;49.12;;
60031;Laerm;45901;47.600;9.890;2023-06-05T03:02:40;40.46;37.12;49.73;;
60031;Laerm;45901;47.600;9.890;2023-06-05T03:05:10;41.20;36.91;59.32;;
60031;Laerm;45901;47.600;9.890;2023-06-05T03:07:37;40.05;36.91;45.91;;
60031;Laerm;45901;47.600;9.890;2023-06-05T03:10:06;40.36;37.52;45.48;;
60031;Laerm;45901;47.600;9.890;2023-06-05T03:12:34;40.11;37.12;46.02;;
60031;Laerm;45901;47.600;9.890;2023-06-05T03:15:01;39.94;37.32;48.37;;
60031;Laerm;45901;47.600;9.890;2023-06-05T03:17:30;39.87;37.12;42.41;;
60031;Laerm;45901;47.600;9.890;2023-06-05T03:19:57;39.99;35.66;44.58;;
60031;Laerm;45901;47.600;9.890;2023-06-05T03:22:26;40.26;36.91;48.83;;
60031;Laerm;45901;47.600;9.890;2023-06-05T03:24:53;40.33;37.12;47.36;;
60031;Laerm;45901;47.600;9.890;2023-06-05T03:27:21;40.16;36.91;45.30;;
60031;Laerm;45901;47.600;9.890;2023-06-05T03:29:48;39.93;37.12;48.78;;
60031;Laerm;45901;47.600;9.890;2023-06-05T03:32:16;39.99;37.32;52.11;;
60031;Laerm;45901;47.600;9.890;2023-06-05T03:34:43;40.04;37.32;48.55;;
60031;Laerm;45901;47.600;9.890;2023-06-05T03:37:14;39.81;37.32;43.05;;
60031;Laerm;45901;47.600;9.890;2023-06-05T03:39:43;40.14;36.91;44.31;;
60031;Laerm;45901;47.600;9.890;2023-06-05T03:42:11;40.27;37.52;45.27;;
60031;Laerm;45901;47.600;9.890;2023-06-05T03:44:38;40.15;37.32;48.26;;
60031;Laerm;45901;47.600;9.890;2023-06-05T03:47:06;40.19;37.12;46.48;;
60031;Laerm;45901;47.600;9.890;2023-06-05T03:49:33;39.71;37.12;41.53;;
60031;Laerm;45901;47.600;9.890;2023-06-05T03:52:01;40.01;37.12;44.76;;
60031;Laerm;45901;47.600;9.890;2023-06-05T03:54:29;39.99;36.91;42.82;;
60031;Laerm;45901;47.600;9.890;2023-06-05T03:57:00;40.24;37.12;46.52;;
60031;Laerm;45901;47.600;9.890;2023-06-05T03:59:28;40.59;37.32;50.12;;
60031;Laerm;45901;47.600;9.890;2023-06-05T04:01:56;40.58;36.91;50.13;;
60031;Laerm;45901;47.600;9.890;2023-06-05T04:04:23;40.97;36.91;50.96;;
60031;Laerm;45901;47.600;9.890;2023-06-05T04:06:53;39.93;37.12;42.03;;
60031;Laerm;45901;47.600;9.890;2023-06-05T04:09:21;39.99;36.98;55.04;;
60031;Laerm;45901;47.600;9.890;2023-06-05T04:11:48;40.00;37.52;43.63;;
60031;Laerm;45901;47.600;9.890;2023-06-05T04:14:17;40.12;37.52;47.68;;
60031;Laerm;45901;47.600;9.890;2023-06-05T04:16:45;40.54;37.52;44.23;;
60031;Laerm;45901;47.600;9.890;2023-06-05T04:19:12;40.00;37.52;45.30;;
60031;Laerm;45901;47.600;9.890;2023-06-05T04:21:40;40.17;36.69;46.05;;
60031;Laerm;45901;47.600;9.890;2023-06-05T04:24:09;39.96;36.69;42.47;;
60031;Laerm;45901;47.600;9.890;2023-06-05T04:26:38;40.17;36.91;47.24;;
60031;Laerm;45901;47.600;9.890;2023-06-05T04:29:07;40.36;36.91;49.10;;
60031;Laerm;45901;47.600;9.890;2023-06-05T04:31:42;39.99;36.45;48.73;;
60031;Laerm;45901;47.600;9.890;2023-06-05T04:34:10;39.95;36.69;44.39;;
60031;Laerm;45901;47.600;9.890;2023-06-05T04:36:37;39.92;36.91;43.94;;
60031;Laerm;45901;47.600;9.890;2023-06-05T04:39:06;40.07;37.32;50.56;;
60031;Laerm;45901;47.600;9.890;2023-06-05T04:41:40;39.87;37.12;43.09;;
60031;Laerm;45901;47.600;9.890;2023-06-05T04:44:11;39.85;37.12;42.65;;
60031;Laerm;45901;47.600;9.890;2023-06-05T04:46:39;40.14;36.45;49.08;;
60031;Laerm;45901;47.600;9.890;2023-06-05T04:49:12;39.88;37.12;43.72;;
60031;Laerm;45901;47.600;9.890;2023-06-05T04:51:40;40.07;36.91;44.94;;
60031;Laerm;45901;47.600;9.890;2023-06-05T04:54:08;40.03;36.91;43.72;;
60031;Laerm;45901;47.600;9.890;2023-06-05T04:56:36;39.84;37.12;45.27;;
60031;Laerm;45901;47.600;9.890;2023-06-05T04:59:05;40.02;37.12;45.88;;
60031;Laerm;45901;47.600;9.890;2023-06-05T05:01:33;41.76;37.88;49.46;;
60031;Laerm;45901;47.600;9.890;2023-06-05T05:04:00;41.13;37.32;44.47;;
60031;Laerm;45901;47.600;9.890;2023-06-05T05:06:29;40.45;37.70;44.27;;
60031;Laerm;45901;47.600;9.890;2023-06-05T05:09:00;40.86;38.05;44.27;;
60031;Laerm;45901;47.600;9.890;2023-06-05T05:11:27;40.72;37.88;44.87;;
60031;Laerm;45901;47.600;9.890;2023-06-05T05:13:55;40.54;37.12;49.33;;
60031;Laerm;45901;47.600;9.890;2023-06-05T05:16:22;40.84;37.70;46.10;;
60031;Laerm;45901;47.600;9.890;2023-06-05T05:18:51;40.28;37.70;42.29;;
60031;Laerm;45901;47.600;9.890;2023-06-05T05:21:18;40.88;37.12;57.99;;
60031;Laerm;45901;47.600;9.890;2023-06-05T05:23:47;40.77;37.70;52.74;;
60031;Laerm;45901;47.600;9.890;2023-06-05T05:26:14;40.64;37.70;44.27;;
60031;Laerm;45901;47.600;9.890;2023-06-05T05:28:41;40.72;37.52;44.80;;
60031;Laerm;45901;47.600;9.890;2023-06-05T05:31:09;40.28;37.32;48.94;;
60031;Laerm;45901;47.600;9.890;2023-06-05T05:33:37;39.82;36.91;42.98;;
60031;Laerm;45901;47.600;9.890;2023-06-05T05:36:04;40.25;37.32;46.20;;
60031;Laerm;45901;47.600;9.890;2023-06-05T05:38:32;40.23;37.12;44.73;;
60031;Laerm;45901;47.600;9.890;2023-06-05T05:41:01;40.17;37.12;42.41;;
60031;Laerm;45901;47.600;9.890;2023-06-05T05:43:28;39.98;37.32;43.63;;
60031;Laerm;45901;47.600;9.890;2023-06-05T05:45:56;40.75;37.12;48.49;;
60031;Laerm;45901;47.600;9.890;2023-06-05T05:48:23;40.61;37.53;48.76;;
60031;Laerm;45901;47.600;9.890;2023-06-05T05:50:51;40.54;37.32;51.25;;
60031;Laerm;45901;47.600;9.890;2023-06-05T05:53:18;40.54;37.32;46.20;;
60031;Laerm;45901;47.600;9.890;2023-06-05T05:55:46;40.55;37.70;45.77;;
60031;Laerm;45901;47.600;9.890;2023-06-05T05:58:15;40.31;36.69;53.13;;
60031;Laerm;45901;47.600;9.890;2023-06-05T06:00:42;41.24;36.69;47.96;;
60031;Laerm;45901;47.600;9.890;2023-06-05T06:03:10;40.31;37.32;45.83;;
60031;Laerm;45901;47.600;9.890;2023-06-05T06:05:37;41.24;37.32;49.03;;
60031;Laerm;45901;47.600;9.890;2023-06-05T06:08:05;40.30;37.32;43.09;;
60031;Laerm;45901;47.600;9.890;2023-06-05T06:10:33;40.20;37.12;54.95;;
60031;Laerm;45901;47.600;9.890;2023-06-05T06:13:00;40.98;37.32;49.06;;
60031;Laerm;45901;47.600;9.890;2023-06-05T06:15:29;40.75;37.52;47.10;;
60031;Laerm;45901;47.600;9.890;2023-06-05T06:17:57;40.12;37.12;43.81;;
60031;Laerm;45901;47.600;9.890;2023-06-05T06:20:25;39.99;36.91;46.82;;
60031;Laerm;45901;47.600;9.890;2023-06-05T06:22:54;40.57;37.52;44.83;;
60031;Laerm;45901;47.600;9.890;2023-06-05T06:25:22;40.36;37.12;48.51;;
60031;Laerm;45901;47.600;9.890;2023-06-05T06:27:52;40.39;37.32;54.74;;
60031;Laerm;45901;47.600;9.890;2023-06-05T06:30:19;40.72;36.45;48.84;;
60031;Laerm;45901;47.600;9.890;2023-06-05T06:32:48;40.09;36.91;45.48;;
60031;Laerm;45901;47.600;9.890;2023-06-05T06:35:16;39.84;36.91;44.23;;
60031;Laerm;45901;47.600;9.890;2023-06-05T06:37:44;40.10;36.91;45.51;;
60031;Laerm;45901;47.600;9.890;2023-06-05T06:40:11;40.12;36.69;47.67;;
60031;Laerm;45901;47.600;9.890;2023-06-05T06:42:40;40.52;37.52;44.90;;
60031;Laerm;45901;47.600;9.890;2023-06-05T06:45:08;40.71;37.32;47.18;;
60031;Laerm;45901;47.600;9.890;2023-06-05T06:47:36;40.00;35.36;45.83;;
60031;Laerm;45901;47.600;9.890;2023-06-05T06:50:06;39.89;37.12;53.00;;
60031;Laerm;45901;47.600;9.890;2023-06-05T06:52:35;40.72;36.91;50.21;;
60031;Laerm;45901;47.600;9.890;2023-06-05T06:55:06;40.43;37.12;54.96;;
60031;Laerm;45901;47.600;9.890;2023-06-05T06:57:34;39.70;36.69;43.99;;
60031;Laerm;45901;47.600;9.890;2023-06-05T07:00:02;41.29;36.69;51.92;;
60031;Laerm;45901;47.600;9.890;2023-06-05T07:02:33;40.24;36.69;45.78;;
60031;Laerm;45901;47.600;9.890;2023-06-05T07:05:01;40.22;36.69;48.29;;
60031;Laerm;45901;47.600;9.890;2023-06-05T07:07:29;40.13;36.69;47.68;;
60031;Laerm;45901;47.600;9.890;2023-06-05T07:09:57;40.74;36.91;47.02;;
60031;Laerm;45901;47.600;9.890;2023-06-05T07:12:25;40.02;36.45;45.39;;
60031;Laerm;45901;47.600;9.890;2023-06-05T07:14:52;40.47;36.91;45.66;;
60031;Laerm;45901;47.600;9.890;2023-06-05T07:17:20;39.54;36.20;43.29;;
60031;Laerm;45901;47.600;9.890;2023-06-05T07:19:47;39.77;35.94;43.77;;
60031;Laerm;45901;47.600;9.890;2023-06-05T07:22:16;40.23;36.91;44.65;;
60031;Laerm;45901;47.600;9.890;2023-06-05T07:24:45;39.76;35.94;42.47;;
60031;Laerm;45901;47.600;9.890;2023-06-05T07:27:12;40.44;36.20;50.13;;
60031;Laerm;45901;47.600;9.890;2023-06-05T07:29:39;39.84;36.69;49.72;;
60031;Laerm;45901;47.600;9.890;2023-06-05T07:32:07;40.00;36.45;47.32;;
60031;Laerm;45901;47.600;9.890;2023-06-05T07:34:34;41.21;37.12;57.53;;
60031;Laerm;45901;47.600;9.890;2023-06-05T07:37:02;40.82;37.12;47.40;;
60031;Laerm;45901;47.600;9.890;2023-06-05T07:39:30;40.63;37.52;46.45;;
60031;Laerm;45901;47.600;9.890;2023-06-05T07:41:58;42.16;37.52;52.83;;
60031;Laerm;45901;47.600;9.890;2023-06-05T07:44:26;41.17;37.70;51.60;;
60031;Laerm;45901;47.600;9.890;2023-06-05T07:46:53;40.90;37.88;45.14;;
60031;Laerm;45901;47.600;9.890;2023-06-05T07:49:21;43.39;38.05;57.75;;
60031;Laerm;45901;47.600;9.890;2023-06-05T07:51:50;45.71;37.32;67.08;;
60031;Laerm;45901;47.600;9.890;2023-06-05T07:54:18;40.65;36.91;45.45;;
60031;Laerm;45901;47.600;9.890;2023-06-05T07:56:48;40.85;37.70;45.91;;
60031;Laerm;45901;47.600;9.890;2023-06-05T07:59:18;40.70;37.70;50.18;;
60031;Laerm;45901;47.600;9.890;2023-06-05T08:01:50;41.17;37.52;50.94;;
60031;Laerm;45901;47.600;9.890;2023-06-05T08:04:18;41.79;37.12;53.68;;
60031;Laerm;45901;47.600;9.890;2023-06-05T08:06:45;41.93;38.95;53.71;;
60031;Laerm;45901;47.600;9.890;2023-06-05T08:09:14;42.62;40.13;47.50;;
60031;Laerm;45901;47.600;9.890;2023-06-05T08:11:41;42.27;39.58;45.83;;
60031;Laerm;45901;47.600;9.890;2023-06-05T08:14:09;43.61;38.95;53.54;;
60031;Laerm;45901;47.600;9.890;2023-06-05T08:16:38;43.08;39.21;49.23;;
60031;Laerm;45901;47.600;9.890;2023-06-05T08:19:05;41.25;37.52;47.76;;
60031;Laerm;45901;47.600;9.890;2023-06-05T08:21:34;41.33;36.91;48.67;;
60031;Laerm;45901;47.600;9.890;2023-06-05T08:24:03;41.72;37.88;51.21;;
60031;Laerm;45901;47.600;9.890;2023-06-05T08:26:30;40.34;37.52;46.10;;
60031;Laerm;45901;47.600;9.890;2023-06-05T08:28:58;41.19;37.70;53.04;;
60031;Laerm;45901;47.600;9.890;2023-06-05T08:31:26;40.58;37.52;48.92;;
60031;Laerm;45901;47.600;9.890;2023-06-05T08:33:55;41.11;37.70;52.02;;
60031;Laerm;45901;47.600;9.890;2023-06-05T08:36:22;42.90;39.08;48.95;;
60031;Laerm;45901;47.600;9.890;2023-06-05T08:38:50;42.28;38.37;45.91;;
60031;Laerm;45901;47.600;9.890;2023-06-05T08:41:18;40.35;36.91;52.49;;
60031;Laerm;45901;47.600;9.890;2023-06-05T08:43:45;40.86;37.12;47.52;;
60031;Laerm;45901;47.600;9.890;2023-06-05T08:46:13;41.37;37.70;52.98;;
60031;Laerm;45901;47.600;9.890;2023-06-05T08:48:43;42.79;37.70;48.12;;
60031;Laerm;45901;47.600;9.890;2023-06-05T08:51:15;40.30;36.69;50.06;;
60031;Laerm;45901;47.600;9.890;2023-06-05T08:56:26;41.07;37.88;47.12;;
60031;Laerm;45901;47.600;9.890;2023-06-05T08:58:55;40.76;37.35;45.23;;
60031;Laerm;45901;47.600;9.890;2023-06-05T09:01:23;41.85;37.88;50.96;;
60031;Laerm;45901;47.600;9.890;2023-06-05T09:03:51;40.46;36.91;46.82;;
60031;Laerm;45901;47.600;9.890;2023-06-05T09:06:20;40.82;37.32;47.18;;
60031;Laerm;45901;47.600;9.890;2023-06-05T09:08:48;40.73;36.56;57.38;;
60031;Laerm;45901;47.600;9.890;2023-06-05T09:11:23;41.71;37.32;58.62;;
60031;Laerm;45901;47.600;9.890;2023-06-05T09:13:51;39.83;36.45;44.23;;
60031;Laerm;45901;47.600;9.890;2023-06-05T09:16:20;39.52;36.69;51.00;;
60031;Laerm;45901;47.600;9.890;2023-06-05T09:18:56;40.10;36.69;46.80;;
60031;Laerm;45901;47.600;9.890;2023-06-05T09:21:26;39.72;36.69;47.20;;
60031;Laerm;45901;47.600;9.890;2023-06-05T09:24:14;39.94;36.69;45.30;;
60031;Laerm;45901;47.600;9.890;2023-06-05T09:26:54;40.39;36.91;49.18;;
60031;Laerm;45901;47.600;9.890;2023-06-05T09:29:27;40.19;36.45;50.45;;
60031;Laerm;45901;47.600;9.890;2023-06-05T09:31:56;39.98;36.45;47.46;;
60031;Laerm;45901;47.600;9.890;2023-06-05T09:34:26;40.14;36.20;50.30;;
60031;Laerm;45901;47.600;9.890;2023-06-05T09:36:56;41.52;38.05;48.37;;
60031;Laerm;45901;47.600;9.890;2023-06-05T09:39:26;40.27;37.12;45.27;;
60031;Laerm;45901;47.600;9.890;2023-06-05T09:41:55;39.57;35.94;43.39;;
60031;Laerm;45901;47.600;9.890;2023-06-05T09:44:25;40.97;37.35;52.16;;
60031;Laerm;45901;47.600;9.890;2023-06-05T09:46:55;40.05;36.69;53.38;;
60031;Laerm;45901;47.600;9.890;2023-06-05T09:49:26;40.82;37.12;64.86;;
60031;Laerm;45901;47.600;9.890;2023-06-05T09:51:57;40.17;37.32;54.24;;
60031;Laerm;45901;47.600;9.890;2023-06-05T09:54:30;41.44;37.12;67.36;;
60031;Laerm;45901;47.600;9.890;2023-06-05T09:56:59;39.73;36.69;44.19;;
60031;Laerm;45901;47.600;9.890;2023-06-05T09:59:29;40.86;36.91;51.56;;
60031;Laerm;45901;47.600;9.890;2023-06-05T10:02:00;40.66;36.91;50.31;;
60031;Laerm;45901;47.600;9.890;2023-06-05T10:04:40;41.51;37.88;49.59;;
60031;Laerm;45901;47.600;9.890;2023-06-05T10:07:11;40.89;37.35;48.00;;
60031;Laerm;45901;47.600;9.890;2023-06-05T10:09:38;39.71;36.20;44.94;;
60031;Laerm;45901;47.600;9.890;2023-06-05T10:12:08;39.76;36.91;43.09;;
60031;Laerm;45901;47.600;9.890;2023-06-05T10:14:36;39.90;36.91;44.54;;
60031;Laerm;45901;47.600;9.890;2023-06-05T10:17:04;40.04;37.32;48.10;;
60031;Laerm;45901;47.600;9.890;2023-06-05T10:19:31;40.09;36.69;49.78;;
60031;Laerm;45901;47.600;9.890;2023-06-05T10:21:59;40.24;37.12;46.55;;
60031;Laerm;45901;47.600;9.890;2023-06-05T10:24:32;40.84;38.05;46.52;;
60031;Laerm;45901;47.600;9.890;2023-06-05T10:27:56;40.82;38.05;46.69;;
60031;Laerm;45901;47.600;9.890;2023-06-05T10:31:16;41.92;38.52;52.02;;
60031;Laerm;45901;47.600;9.890;2023-06-05T10:34:32;42.21;37.87;46.69;;
60031;Laerm;45901;47.600;9.890;2023-06-05T10:37:37;42.15;38.67;50.85;;
60031;Laerm;45901;47.600;9.890;2023-06-05T10:40:07;42.97;38.21;50.48;;
60031;Laerm;45901;47.600;9.890;2023-06-05T10:42:37;41.98;38.67;46.18;;
60031;Laerm;45901;47.600;9.890;2023-06-05T10:45:05;41.34;38.05;48.66;;
60031;Laerm;45901;47.600;9.890;2023-06-05T10:47:49;42.38;38.81;47.67;;
60031;Laerm;45901;47.600;9.890;2023-06-05T10:50:23;43.92;40.80;51.51;;
60031;Laerm;45901;47.600;9.890;2023-06-05T10:52:55;42.66;38.81;49.80;;
60031;Laerm;45901;47.600;9.890;2023-06-05T10:55:26;41.28;37.12;46.23;;
60031;Laerm;45901;47.600;9.890;2023-06-05T10:58:06;41.67;38.52;46.71;;
60031;Laerm;45901;47.600;9.890;2023-06-05T11:00:35;41.37;38.18;50.76;;
60031;Laerm;45901;47.600;9.890;2023-06-05T11:03:03;41.11;38.05;52.01;;
60031;Laerm;45901;47.600;9.890;2023-06-05T11:05:32;41.25;37.88;46.43;;
60031;Laerm;45901;47.600;9.890;2023-06-05T11:08:14;42.64;38.37;47.22;;
60031;Laerm;45901;47.600;9.890;2023-06-05T11:11:05;42.76;40.13;46.84;;
60031;Laerm;45901;47.600;9.890;2023-06-05T11:13:55;44.37;37.32;72.54;;
60031;Laerm;45901;47.600;9.890;2023-06-05T11:16:27;41.68;38.21;51.27;;
60031;Laerm;45901;47.600;9.890;2023-06-05T11:19:35;41.51;37.88;48.78;;
60031;Laerm;45901;47.600;9.890;2023-06-05T11:22:07;41.19;38.05;48.43;;
60031;Laerm;45901;47.600;9.890;2023-06-05T11:24:35;40.69;38.37;45.04;;
60031;Laerm;45901;47.600;9.890;2023-06-05T11:27:05;40.56;37.88;46.77;;
60031;Laerm;45901;47.600;9.890;2023-06-05T11:29:35;41.21;38.37;49.35;;
60031;Laerm;45901;47.600;9.890;2023-06-05T11:32:11;41.41;38.21;46.05;;
60031;Laerm;45901;47.600;9.890;2023-06-05T11:34:39;40.67;37.70;45.69;;
60031;Laerm;45901;47.600;9.890;2023-06-05T11:37:18;41.09;38.67;49.35;;
60031;Laerm;45901;47.600;9.890;2023-06-05T11:39:48;43.35;38.95;51.59;;
60031;Laerm;45901;47.600;9.890;2023-06-05T11:42:22;42.96;38.05;50.27;;
60031;Laerm;45901;47.600;9.890;2023-06-05T11:44:50;43.41;40.03;52.59;;
60031;Laerm;45901;47.600;9.890;2023-06-05T11:47:24;42.99;39.21;51.61;;
60031;Laerm;45901;47.600;9.890;2023-06-05T11:49:51;43.20;40.13;48.39;;
60031;Laerm;45901;47.600;9.890;2023-06-05T11:52:19;42.31;37.88;49.78;;
60031;Laerm;45901;47.600;9.890;2023-06-05T11:54:48;43.00;39.58;59.77;;
60031;Laerm;45901;47.600;9.890;2023-06-05T11:57:41;41.60;38.81;47.50;;
60031;Laerm;45901;47.600;9.890;2023-06-05T12:00:10;42.30;38.95;51.14;;
60031;Laerm;45901;47.600;9.890;2023-06-05T12:02:40;41.07;37.88;49.98;;
60031;Laerm;45901;47.600;9.890;2023-06-05T12:05:09;40.77;37.52;47.08;;
60031;Laerm;45901;47.600;9.890;2023-06-05T12:07:37;42.61;40.33;46.38;;
60031;Laerm;45901;47.600;9.890;2023-06-05T12:10:07;42.59;38.05;45.94;;
60031;Laerm;45901;47.600;9.890;2023-06-05T12:12:34;43.41;40.80;53.00;;
60031;Laerm;45901;47.600;9.890;2023-06-05T12:15:16;43.14;37.32;50.74;;
60031;Laerm;45901;47.600;9.890;2023-06-05T12:17:49;40.78;37.70;58.68;;
60031;Laerm;45901;47.600;9.890;2023-06-05T12:20:17;43.15;37.32;58.54;;
60031;Laerm;45901;47.600;9.890;2023-06-05T12:22:45;44.15;40.98;53.82;;
60031;Laerm;45901;47.600;9.890;2023-06-05T12:25:16;43.02;39.58;47.55;;
60031;Laerm;45901;47.600;9.890;2023-06-05T12:27:44;41.92;39.11;46.05;;
60031;Laerm;45901;47.600;9.890;2023-06-05T12:30:12;41.76;39.21;51.50;;
60031;Laerm;45901;47.600;9.890;2023-06-05T12:32:43;41.35;36.91;50.23;;
60031;Laerm;45901;47.600;9.890;2023-06-05T12:35:18;41.43;38.37;53.55;;
60031;Laerm;45901;47.600;9.890;2023-06-05T12:37:47;41.61;37.32;52.22;;
60031;Laerm;45901;47.600;9.890;2023-06-05T12:40:14;40.57;36.91;50.15;;
60031;Laerm;45901;47.600;9.890;2023-06-05T12:42:47;40.06;36.45;45.66;;
60031;Laerm;45901;47.600;9.890;2023-06-05T12:45:15;40.43;36.91;51.58;;
60031;Laerm;45901;47.600;9.890;2023-06-05T12:47:44;55.80;37.52;69.01;;
60031;Laerm;45901;47.600;9.890;2023-06-05T12:50:12;55.92;48.70;65.46;;
60031;Laerm;45901;47.600;9.890;2023-06-05T12:52:42;42.14;36.69;58.72;;
60031;Laerm;45901;47.600;9.890;2023-06-05T12:55:10;40.65;36.69;55.50;;
60031;Laerm;45901;47.600;9.890;2023-06-05T12:57:37;40.24;37.12;49.04;;
60031;Laerm;45901;47.600;9.890;2023-06-05T13:00:07;41.15;36.91;54.99;;
60031;Laerm;45901;47.600;9.890;2023-06-05T13:02:38;40.02;36.91;47.98;;
60031;Laerm;45901;47.600;9.890;2023-06-05T13:05:09;40.84;37.12;60.79;;
60031;Laerm;45901;47.600;9.890;2023-06-05T13:07:37;40.35;37.12;46.71;;
60031;Laerm;45901;47.600;9.890;2023-06-05T13:10:06;41.27;37.12;49.19;;
60031;Laerm;45901;47.600;9.890;2023-06-05T13:12:34;40.38;36.69;45.01;;
60031;Laerm;45901;47.600;9.890;2023-06-05T13:15:02;39.89;37.12;49.21;;
60031;Laerm;45901;47.600;9.890;2023-06-05T13:17:32;40.43;37.12;49.08;;
60031;Laerm;45901;47.600;9.890;2023-06-05T13:20:02;41.52;38.67;44.62;;
60031;Laerm;45901;47.600;9.890;2023-06-05T13:22:33;41.29;37.12;48.03;;
60031;Laerm;45901;47.600;9.890;2023-06-05T13:25:01;42.98;39.46;58.69;;
60031;Laerm;45901;47.600;9.890;2023-06-05T13:27:29;42.26;38.52;58.94;;
60031;Laerm;45901;47.600;9.890;2023-06-05T13:29:56;41.27;37.88;50.01;;
60031;Laerm;45901;47.600;9.890;2023-06-05T13:32:24;42.06;38.67;49.51;;
60031;Laerm;45901;47.600;9.890;2023-06-05T13:34:51;42.76;39.34;55.91;;
60031;Laerm;45901;47.600;9.890;2023-06-05T13:37:20;41.30;38.67;47.42;;
60031;Laerm;45901;47.600;9.890;2023-06-05T13:39:49;42.11;38.37;51.34;;
60031;Laerm;45901;47.600;9.890;2023-06-05T13:42:16;40.84;38.05;44.47;;
60031;Laerm;45901;47.600;9.890;2023-06-05T13:44:44;42.75;38.21;54.57;;
60031;Laerm;45901;47.600;9.890;2023-06-05T13:47:12;41.09;37.70;54.13;;
60031;Laerm;45901;47.600;9.890;2023-06-05T13:49:40;41.21;38.37;49.36;;
60031;Laerm;45901;47.600;9.890;2023-06-05T13:52:08;40.83;37.32;49.12;;
60031;Laerm;45901;47.600;9.890;2023-06-05T13:54:35;40.99;37.32;47.90;;
60031;Laerm;45901;47.600;9.890;2023-06-05T13:57:04;40.52;37.12;51.56;;
60031;Laerm;45901;47.600;9.890;2023-06-05T13:59:31;41.96;37.88;51.86;;
60031;Laerm;45901;47.600;9.890;2023-06-05T14:01:59;40.61;37.52;47.61;;